Terminal Aerodrome Forecast
Issued by NWS

Home | Current Version | Previous Version | Text Only | Print | Product List | Glossary On
Versions: 1 2 3 4 5 6 7 8 9 10 11 12
153
FTUS43 KIND 251125
TAFHUF
TAF
KHUF 251125Z 2512/2612 19007KT P6SM SCT080 BKN250
     FM251600 19010KT P6SM SCT030 BKN250
     FM252100 19010KT P6SM SCT040 BKN100 PROB30 2521/2603 3SM TSRA
      BKN025 OVC040CB=

USA.gov is the U.S. government's official web portal to all federal, state and local government web resources and services.